Latest Weather Observations for Grove

IDT60901

Issued at 10:45 pm EDT Saturday 1 November 2014 (issued every 10 minutes, with the page automatically refreshed every 10 minutes)

About weather observations | Map of Hobart area stations | Latest observations for Hobart area | Other Formats
Station Details ID: 094220 Name: GROVE (RESEARCH STATION) Lat: -42.99 Lon: 147.07 Height: 65.0 m
Data from the previous 72 hours. | See also: Recent months at Grove
Date/Time
EDT
Tmp

°C
App
Tmp
°C
Dew
Point
°C
Rel
Hum
%
Delta-T

°C
Wind Press
QNH
hPa
Press
MSL
hPa
Rain
since
9 am
mm
Dir
 
Spd
km/h
Gust
km/h
Spd
kts
Gust
kts
01/10:30pm 3.8 -0.9 0.9 81 1.1 W 15 22 8 12 - - 6.6
01/10:00pm 4.2 -3.8 0.6 77 1.4 WSW 32 57 17 31 - - 6.4
01/09:57pm 4.4 -3.3 0.2 74 1.6 WSW 30 57 16 31 - - 6.4
01/09:56pm 4.3 -2.9 0.7 77 1.4 WSW 28 44 15 24 - - 6.4
01/09:30pm 3.2 0.3 1.4 88 0.7 SW 6 15 3 8 - - 6.2
01/09:00pm 3.3 -0.5 1.5 88 0.7 WSW 11 15 6 8 - - 6.2
01/08:38pm 4.0 -3.0 2.0 87 0.8 W 28 46 15 25 - - 5.6
01/08:30pm 3.9 1.0 2.7 92 0.5 S 7 11 4 6 - - 5.2
01/08:00pm 4.3 -0.6 2.0 85 0.9 WSW 17 24 9 13 - - 5.0
01/07:30pm 4.2 -1.2 2.2 87 0.8 WSW 20 33 11 18 - - 4.0
01/07:20pm 4.6 -2.4 2.1 84 1.0 SW 28 50 15 27 - - 3.0
01/07:00pm 6.1 1.2 1.9 74 1.7 SW 17 24 9 13 - - 2.8
01/06:30pm 6.7 1.7 1.2 68 2.2 WSW 17 32 9 17 - - 2.8
01/06:00pm 7.5 2.2 1.9 67 2.3 WNW 19 41 10 22 - - 2.8
01/05:30pm 6.5 1.4 3.9 83 1.1 WSW 20 37 11 20 - - 2.8
01/05:00pm 8.5 1.2 0.2 56 3.3 WSW 28 50 15 27 - - 1.8
01/04:30pm 9.7 2.2 0.9 54 3.6 W 30 44 16 24 - - 1.8
01/04:20pm 9.1 1.9 0.4 54 3.5 WSW 28 50 15 27 - - 1.8
01/04:00pm 9.6 4.4 3.7 66 2.6 WSW 20 50 11 27 - - 1.8
01/03:30pm 6.5 -1.9 3.9 83 1.1 W 37 74 20 40 - - 1.6
01/03:24pm 6.1 -3.3 4.2 88 0.8 WSW 43 74 23 40 - - 1.6
01/03:00pm 9.6 2.3 4.4 70 2.3 SW 32 46 17 25 - - 0.8
01/02:53pm 9.7 2.3 4.0 67 2.5 SW 32 46 17 25 - - 0.8
01/02:30pm 9.0 0.4 2.4 63 2.8 W 37 63 20 34 - - 0.8
01/02:19pm 11.1 4.4 3.7 60 3.3 WSW 28 48 15 26 - - 0.6
01/02:00pm 12.1 5.8 3.6 56 3.8 W 26 54 14 29 - - 0.6
01/01:30pm 11.8 4.3 4.3 60 3.4 W 33 56 18 30 - - 0.6
01/01:24pm 11.5 5.0 4.7 63 3.1 W 28 56 15 30 - - 0.6
01/01:00pm 12.7 7.5 5.7 62 3.3 W 22 37 12 20 - - 0.6
01/12:38pm 11.7 5.3 5.2 64 3.0 WNW 28 46 15 25 - - 0.2
01/12:30pm 14.2 8.5 4.8 53 4.4 W 24 43 13 23 - - 0.0
01/12:14pm 13.5 6.8 3.5 51 4.5 WNW 28 50 15 27 - - 0.0
01/12:00pm 12.5 6.5 3.6 54 4.0 NW 24 41 13 22 - - 0.0
01/11:30am 11.9 4.3 4.1 59 3.5 WSW 33 61 18 33 - - 0.0
01/11:09am 14.3 7.4 2.3 44 5.3 WSW 28 46 15 25 - - 0.0
01/11:00am 14.4 9.2 3.4 47 5.0 WSW 20 33 11 18 - - 0.0
01/10:30am 13.5 6.8 3.5 51 4.5 WSW 28 41 15 22 - - 0.0
01/10:02am 13.3 6.4 2.7 48 4.7 W 28 48 15 26 - - 0.0
01/10:00am 13.2 6.6 2.2 47 4.8 W 26 48 14 26 - - 0.0
01/09:30am 12.9 5.8 1.5 46 4.9 W 28 48 15 26 - - 0.0
01/09:09am 12.5 5.3 0.6 44 5.0 WSW 28 61 15 33 - - 0.0
01/09:00am 12.6 5.8 1.0 45 4.9 WSW 26 44 14 24 - - 1.8
01/08:30am 12.6 7.0 5.3 61 3.4 W 24 37 13 20 - - 1.8
01/08:00am 11.5 5.8 6.7 72 2.3 W 26 43 14 23 - - 1.8
01/07:30am 12.7 7.1 5.4 61 3.4 WSW 24 39 13 21 - - 1.8
01/07:00am 13.3 8.0 6.7 64 3.2 W 24 37 13 20 - - 1.8
01/06:30am 12.9 10.6 7.6 70 2.6 W 9 19 5 10 - - 1.8
01/06:00am 11.5 10.4 10.1 91 0.7 NE 6 9 3 5 - - 1.8
01/05:30am 11.4 10.3 10.6 95 0.4 E 7 13 4 7 - - 1.6
01/05:00am 11.5 10.6 10.7 95 0.4 WNW 6 7 3 4 - - 1.6
01/04:30am 12.1 10.9 10.4 89 0.9 SSE 7 11 4 6 - - 1.6
01/04:00am 13.7 11.7 8.7 72 2.5 NW 9 19 5 10 - - 1.4
01/03:30am 15.0 10.5 6.8 58 4.0 NW 20 33 11 18 - - 0.0
01/03:00am 16.2 11.6 5.6 49 5.1 W 19 44 10 24 - - 0.0
01/02:30am 17.1 11.3 6.1 48 5.4 NW 26 39 14 21 - - 0.0
01/02:00am 17.9 12.9 6.4 47 5.7 NW 22 41 12 22 - - 0.0
01/01:45am 17.8 11.9 7.5 51 5.2 W 28 46 15 25 - - 0.0
01/01:40am 17.2 11.3 7.7 53 4.8 W 28 43 15 23 - - 0.0
01/01:30am 14.6 13.2 8.7 67 3.0 W 6 20 3 11 - - 0.0
01/01:00am 15.3 13.6 8.4 63 3.5 SW 7 11 4 6 - - 0.0
01/12:30am 18.4 15.5 6.6 46 5.9 N 11 19 6 10 - - 0.0
01/12:00am 18.9 14.8 6.0 43 6.4 N 17 24 9 13 - - 0.0
 
Date/Time
EDT
Tmp

°C
App
Tmp
°C
Dew
Point
°C
Rel
Hum
%
Delta-T

°C
Wind Press
QNH
hPa
Press
MSL
hPa
Rain
since
9 am
mm
Dir
 
Spd
km/h
Gust
km/h
Spd
kts
Gust
kts
31/11:30pm 19.1 15.7 5.7 41 6.6 N 13 20 7 11 - - 0.0
31/11:00pm 17.5 15.5 7.1 50 5.2 NNW 7 13 4 7 - - 0.0
31/10:30pm 18.8 16.1 5.8 42 6.4 NNE 9 17 5 9 - - 0.0
31/10:00pm 17.5 15.6 7.4 51 5.1 NW 7 13 4 7 - - 0.0
31/09:30pm 19.4 15.8 5.0 38 7.0 NNW 13 19 7 10 - - 0.0
31/09:00pm 19.9 16.0 5.2 38 7.2 NNW 15 26 8 14 - - 0.0
31/08:30pm 20.5 16.3 5.6 37 7.4 NNW 17 24 9 13 - - 0.0
31/08:00pm 20.7 17.1 6.7 40 7.1 N 15 24 8 13 - - 0.0
31/07:30pm 21.2 17.9 6.4 38 7.5 N 13 20 7 11 - - 0.0
31/07:00pm 21.4 18.3 7.2 40 7.3 N 13 28 7 15 - - 0.0
31/06:30pm 21.2 17.8 7.7 41 7.0 N 15 24 8 13 - - 0.0
31/06:00pm 21.1 16.9 8.3 43 6.7 N 20 37 11 20 - - 0.0
31/05:30pm 20.9 16.6 9.3 47 6.2 N 22 39 12 21 - - 0.0
31/05:00pm 21.1 17.5 10.5 50 5.8 N 20 32 11 17 - - 0.0
31/04:30pm 21.4 20.5 11.3 52 5.6 E 7 22 4 12 - - 0.0
31/04:00pm 20.5 17.9 10.6 53 5.4 W 15 26 8 14 - - 0.0
31/03:30pm 18.9 17.5 11.0 60 4.3 W 9 20 5 11 - - 0.0
31/03:00pm 19.2 17.8 12.2 64 3.9 WNW 11 28 6 15 - - 0.0
31/02:30pm 19.3 15.7 10.0 55 5.0 WNW 19 32 10 17 - - 0.0
31/02:00pm 18.8 17.2 8.9 52 5.2 W 7 19 4 10 - - 0.0
31/01:30pm 17.5 14.4 8.8 56 4.5 N 15 20 8 11 - - 0.0
31/01:00pm 17.5 15.1 8.6 56 4.6 NNW 11 17 6 9 - - 0.0
31/12:30pm 16.8 13.6 8.4 57 4.3 N 15 22 8 12 - - 0.0
31/12:00pm 16.6 13.6 7.9 56 4.4 NW 13 22 7 12 - - 0.0
31/11:30am 16.8 14.2 7.9 55 4.5 WNW 11 20 6 11 - - 0.0
31/11:00am 15.9 13.7 7.7 58 4.1 NW 9 17 5 9 - - 0.0
31/10:30am 15.2 12.8 7.1 58 4.0 NE 9 17 5 9 - - 0.0
31/10:00am 14.7 12.8 6.7 58 3.9 NE 6 9 3 5 - - 0.0
31/09:30am 15.4 13.0 6.9 57 4.2 NE 9 19 5 10 - - 0.0
31/09:00am 14.1 10.0 6.4 60 3.7 N 17 24 9 13 - - 0.4
31/08:30am 14.2 10.6 6.8 61 3.6 N 15 22 8 12 - - 0.4
31/08:00am 13.5 10.7 7.1 65 3.1 N 11 20 6 11 - - 0.4
31/07:30am 13.1 10.8 7.4 68 2.8 NE 9 13 5 7 - - 0.4
31/07:00am 12.6 10.2 7.2 69 2.6 ENE 9 15 5 8 - - 0.4
31/06:30am 12.1 9.8 7.4 73 2.3 NE 9 13 5 7 - - 0.4
31/06:00am 12.2 10.3 7.5 73 2.3 NNE 7 9 4 5 - - 0.4
31/05:30am 13.0 11.9 6.8 66 3.0 N 2 9 1 5 - - 0.4
31/05:00am 12.7 10.3 7.1 69 2.7 N 9 11 5 6 - - 0.4
31/04:30am 12.7 11.0 7.4 70 2.6 N 6 11 3 6 - - 0.4
31/04:00am 12.8 10.4 7.2 69 2.7 NNW 9 15 5 8 - - 0.4
31/03:30am 12.6 9.9 7.2 69 2.6 N 11 15 6 8 - - 0.4
31/03:00am 12.3 9.2 7.4 72 2.4 N 13 20 7 11 - - 0.4
31/02:30am 12.3 10.0 7.4 72 2.4 NE 9 13 5 7 - - 0.4
31/02:00am 12.2 9.5 7.2 71 2.4 N 11 15 6 8 - - 0.4
31/01:30am 12.3 9.2 7.1 70 2.5 N 13 17 7 9 - - 0.4
31/01:00am 12.7 9.5 6.7 67 2.9 NNW 13 19 7 10 - - 0.4
31/12:30am 12.5 9.3 6.7 68 2.8 N 13 19 7 10 - - 0.4
31/12:00am 12.4 9.9 6.5 67 2.8 N 9 17 5 9 - - 0.4
 
Date/Time
EDT
Tmp

°C
App
Tmp
°C
Dew
Point
°C
Rel
Hum
%
Delta-T

°C
Wind Press
QNH
hPa
Press
MSL
hPa
Rain
since
9 am
mm
Dir
 
Spd
km/h
Gust
km/h
Spd
kts
Gust
kts
30/11:30pm 12.2 9.7 6.5 68 2.7 NNE 9 13 5 7 - - 0.4
30/11:00pm 12.0 8.7 6.5 69 2.6 N 13 19 7 10 - - 0.4
30/10:30pm 12.6 9.2 5.8 63 3.2 NW 13 19 7 10 - - 0.4
30/10:00pm 12.8 9.3 5.3 60 3.5 NNW 13 19 7 10 - - 0.4
30/09:30pm 12.9 9.3 4.9 58 3.7 NW 13 24 7 13 - - 0.4
30/09:00pm 12.6 9.2 4.2 56 3.8 WNW 11 20 6 11 - - 0.4
30/08:30pm 12.5 8.7 3.8 55 3.9 WNW 13 22 7 12 - - 0.4
30/08:00pm 13.0 9.1 3.4 52 4.3 NW 13 24 7 13 - - 0.4
30/07:30pm 13.3 10.0 4.4 55 4.1 NW 11 17 6 9 - - 0.4
30/07:00pm 14.1 11.1 4.1 51 4.6 WNW 9 13 5 7 - - 0.4
30/06:30pm 14.1 12.3 5.2 55 4.2 W 4 9 2 5 - - 0.4
30/06:00pm 14.0 10.3 4.2 51 4.5 SW 13 20 7 11 - - 0.4
30/05:30pm 13.9 10.7 4.9 54 4.2 WNW 11 19 6 10 - - 0.4
30/05:00pm 13.7 11.5 6.2 60 3.6 SW 7 15 4 8 - - 0.4
30/04:30pm 14.2 11.7 5.0 54 4.3 SSE 7 13 4 7 - - 0.4
30/04:00pm 14.5 11.3 5.2 53 4.4 W 11 19 6 10 - - 0.4
30/03:30pm 14.5 11.2 4.6 51 4.6 WSW 11 30 6 16 - - 0.4
30/03:00pm 13.7 10.6 5.7 58 3.8 SSE 11 22 6 12 - - 0.4
30/02:30pm 13.4 8.4 6.3 62 3.4 SSW 22 33 12 18 - - 0.4
30/02:00pm 14.2 12.2 7.0 62 3.5 ENE 7 13 4 7 - - 0.4
30/01:30pm 14.1 12.4 7.4 64 3.3 ENE 6 11 3 6 - - 0.4
30/01:00pm 13.5 11.5 8.7 73 2.4 ENE 9 13 5 7 - - 0.4
30/12:30pm 13.0 10.2 7.0 67 2.9 S 11 15 6 8 - - 0.4
30/12:00pm 13.7 11.4 7.4 65 3.1 W 9 17 5 9 - - 0.4
30/11:30am 14.0 12.1 9.1 72 2.5 WSW 9 19 5 10 - - 0.4
30/11:00am 12.6 10.9 9.7 82 1.5 SW 9 15 5 8 - - 0.4
30/10:30am 11.4 8.8 9.2 86 1.1 SW 13 19 7 10 - - 0.2
30/10:00am 11.8 9.5 9.0 83 1.4 SSW 11 15 6 8 - - 0.0
30/09:30am 12.8 11.2 7.9 72 2.4 W 6 11 3 6 - - 0.0
30/09:00am 12.4 10.0 7.2 70 2.5 SSW 9 13 5 7 - - 0.0
30/08:30am 12.5 10.4 6.7 68 2.8 S 7 13 4 7 - - 0.0
30/08:00am 12.4 10.4 7.0 69 2.6 SSE 7 11 4 6 - - 0.0
30/07:30am 12.3 10.9 7.1 70 2.5 ESE 4 7 2 4 - - 0.0
30/07:00am 12.4 9.7 5.8 64 3.1 SSW 9 13 5 7 - - 0.0
30/06:30am 12.2 9.6 6.3 67 2.8 W 9 15 5 8 - - 0.0
30/06:00am 10.9 9.0 7.6 80 1.6 ENE 7 13 4 7 - - 0.0
30/05:30am 11.0 9.4 7.9 81 1.5 N 6 11 3 6 - - 0.0
30/05:00am 11.7 9.9 7.1 73 2.2 S 6 9 3 5 - - 0.0
30/04:30am 12.3 10.3 6.2 66 2.9 W 6 9 3 5 - - 0.0
30/04:00am 12.3 9.7 6.2 66 2.9 WNW 9 13 5 7 - - 0.0
30/03:30am 12.6 9.1 5.6 62 3.3 N 13 19 7 10 - - 0.0
30/03:00am 12.9 10.4 4.9 58 3.7 NW 7 11 4 6 - - 0.0
30/02:30am 13.0 9.2 4.0 54 4.1 W 13 28 7 15 - - 0.0
30/02:00am 12.5 8.0 4.1 56 3.8 WNW 17 35 9 19 - - 0.0
30/01:30am 12.4 8.0 4.5 58 3.6 W 17 28 9 15 - - 0.0
30/01:01am 13.1 6.5 4.1 54 4.1 W 28 48 15 26 - - 0.0
30/01:00am 13.0 6.8 4.2 55 4.0 W 26 43 14 23 - - 0.0
30/12:30am 12.6 8.0 5.6 62 3.3 W 19 33 10 18 - - 0.0
30/12:00am 13.1 8.2 4.9 57 3.8 W 20 39 11 21 - - 0.0
 
Date/Time
EDT
Tmp

°C
App
Tmp
°C
Dew
Point
°C
Rel
Hum
%
Delta-T

°C
Wind Press
QNH
hPa
Press
MSL
hPa
Rain
since
9 am
mm
Dir
 
Spd
km/h
Gust
km/h
Spd
kts
Gust
kts
29/11:30pm 12.9 7.6 5.2 59 3.6 WSW 22 35 12 19 - - 0.0
29/11:00pm 13.0 8.8 5.5 60 3.5 WSW 17 26 9 14 - - 0.0

Latest Capital City Observations: Canberra | Sydney | Melbourne | Brisbane | Adelaide | Perth | Hobart | Darwin

Other Formats:

Comma delimited format used in spreadsheet applications
http://www.bom.gov.au/fwo/IDT60901/IDT60901.95977.axf

JavaScript Object Notation format (JSON) in row-major order
http://www.bom.gov.au/fwo/IDT60901/IDT60901.95977.json